createdAt,value
2022-10-02T00:03:14.136Z,100.00
2022-10-02T00:07:17.353Z,100.00
2022-10-02T00:11:38.661Z,100.00
2022-10-02T00:15:41.448Z,100.00
2022-10-02T00:19:42.780Z,100.00
2022-10-02T00:23:46.172Z,100.00
2022-10-02T00:28:08.634Z,100.00
2022-10-02T00:32:18.928Z,100.00
2022-10-02T00:36:39.129Z,100.00
2022-10-02T00:40:46.497Z,100.00
2022-10-02T00:44:54.461Z,100.00
2022-10-02T00:49:09.336Z,100.00
2022-10-02T00:53:10.654Z,100.00
2022-10-02T00:57:24.069Z,100.00
2022-10-02T01:01:41.698Z,100.00
2022-10-02T01:05:43.046Z,100.00
2022-10-02T01:09:44.841Z,100.00
2022-10-02T01:13:46.612Z,100.00
2022-10-02T01:17:55.773Z,100.00
2022-10-02T01:22:04.209Z,100.00
2022-10-02T01:26:06.190Z,100.00
2022-10-02T01:30:09.176Z,100.00
2022-10-02T01:34:16.769Z,100.00
2022-10-02T01:38:20.399Z,100.00
2022-10-02T01:42:21.860Z,100.00
2022-10-02T01:46:29.334Z,100.00
2022-10-02T01:50:39.899Z,100.00
2022-10-02T01:55:06.735Z,100.00
2022-10-02T01:59:16.820Z,100.00
2022-10-02T02:03:24.012Z,100.00
2022-10-02T02:07:30.288Z,100.00
2022-10-02T02:11:32.746Z,100.00
2022-10-02T02:15:33.997Z,100.00
2022-10-02T02:19:39.910Z,100.00
2022-10-02T02:23:43.251Z,100.00
2022-10-02T02:27:48.620Z,100.00
2022-10-02T02:31:52.122Z,100.00
2022-10-02T02:35:55.533Z,100.00
2022-10-02T02:40:01.913Z,100.00
2022-10-02T02:44:16.841Z,100.00
2022-10-02T02:48:22.185Z,100.00
2022-10-02T02:52:29.412Z,100.00
2022-10-02T02:56:31.933Z,100.00
2022-10-02T03:00:33.260Z,100.00
2022-10-02T03:04:34.529Z,100.00
2022-10-02T03:08:39.272Z,100.00
2022-10-02T03:12:59.669Z,100.00
2022-10-02T03:17:08.063Z,100.00
2022-10-02T03:21:09.362Z,100.00
2022-10-02T03:25:16.453Z,100.00
2022-10-02T03:29:20.297Z,100.00
2022-10-02T03:33:22.753Z,100.00
2022-10-02T03:37:31.817Z,100.00
2022-10-02T03:41:33.271Z,100.00
2022-10-02T03:45:51.081Z,100.00
2022-10-02T03:49:52.909Z,100.00
2022-10-02T03:53:54.354Z,100.00
2022-10-02T03:57:56.000Z,100.00
2022-10-02T04:02:00.126Z,100.00
2022-10-02T04:06:09.619Z,100.00
2022-10-02T04:10:13.998Z,100.00
2022-10-02T04:14:27.865Z,100.00
2022-10-02T04:18:42.923Z,100.00
2022-10-02T04:23:04.404Z,100.00
2022-10-02T04:27:18.849Z,100.00
2022-10-02T04:31:20.327Z,100.00
2022-10-02T04:35:21.544Z,100.00
2022-10-02T04:39:28.832Z,100.00
2022-10-02T04:43:30.040Z,100.00
2022-10-02T04:47:57.684Z,100.00
2022-10-02T04:52:14.292Z,100.00
2022-10-02T04:56:34.846Z,100.00
2022-10-02T05:00:48.947Z,100.00
2022-10-02T05:05:09.411Z,100.00
2022-10-02T05:09:40.170Z,100.00
2022-10-02T05:14:03.219Z,100.00
2022-10-02T05:18:18.139Z,100.00
2022-10-02T05:22:34.852Z,100.00
2022-10-02T05:26:36.439Z,100.00
2022-10-02T05:30:45.609Z,100.00
2022-10-02T05:34:56.184Z,100.00
2022-10-02T05:39:08.224Z,100.00
2022-10-02T05:43:09.546Z,100.00
2022-10-02T05:47:14.920Z,100.00
2022-10-02T05:51:23.043Z,100.00
2022-10-02T05:55:43.009Z,100.00
2022-10-02T06:00:13.929Z,100.00
2022-10-02T06:04:22.860Z,100.00
2022-10-02T06:08:47.085Z,100.00
2022-10-02T06:12:52.417Z,100.00
2022-10-02T06:16:59.188Z,100.00
2022-10-02T06:21:07.740Z,100.00
2022-10-02T06:25:20.921Z,100.00
2022-10-02T06:29:27.557Z,100.00
2022-10-02T06:33:37.218Z,100.00
2022-10-02T06:37:38.444Z,100.00
2022-10-02T06:41:49.061Z,100.00
2022-10-02T06:45:56.373Z,100.00
2022-10-02T06:50:19.282Z,100.00
2022-10-02T06:54:36.297Z,100.00
2022-10-02T06:58:43.952Z,100.00
2022-10-02T07:02:45.192Z,100.00
2022-10-02T07:06:50.437Z,100.00
2022-10-02T07:11:10.581Z,100.00
2022-10-02T07:15:25.656Z,100.00
2022-10-02T07:19:45.844Z,100.00
2022-10-02T07:23:51.984Z,100.00
2022-10-02T07:28:01.731Z,100.00
2022-10-02T07:32:11.262Z,100.00
2022-10-02T07:36:23.975Z,100.00
2022-10-02T07:40:46.937Z,100.00
2022-10-02T07:44:54.278Z,100.00
2022-10-02T07:49:14.545Z,100.00
2022-10-02T07:53:22.929Z,100.00
2022-10-02T07:57:37.804Z,100.00
2022-10-02T08:01:48.006Z,100.00
2022-10-02T08:05:52.114Z,100.00
2022-10-02T08:09:54.590Z,100.00
2022-10-02T08:14:02.606Z,100.00
2022-10-02T08:18:33.586Z,100.00
2022-10-02T08:22:39.053Z,100.00
2022-10-02T08:26:44.151Z,100.00
2022-10-02T08:30:51.962Z,100.00
2022-10-02T08:34:53.269Z,100.00
2022-10-02T08:39:02.968Z,100.00
2022-10-02T08:43:08.302Z,100.00
2022-10-02T08:47:41.962Z,100.00
2022-10-02T08:51:46.563Z,100.00
2022-10-02T08:55:47.988Z,100.00
2022-10-02T09:00:04.820Z,100.00
2022-10-02T09:04:39.756Z,100.00
2022-10-02T09:08:47.024Z,100.00
2022-10-02T09:12:58.383Z,100.00
2022-10-02T09:17:18.672Z,100.00
2022-10-02T09:21:30.866Z,100.00
2022-10-02T09:25:36.096Z,100.00
2022-10-02T09:29:37.439Z,100.00
2022-10-02T09:33:57.627Z,100.00
2022-10-02T09:38:05.932Z,100.00
2022-10-02T09:42:36.125Z,100.00
2022-10-02T09:47:08.013Z,100.00
2022-10-02T09:51:19.188Z,100.00
2022-10-02T09:55:39.277Z,100.00
2022-10-02T09:59:58.990Z,100.00
2022-10-02T10:04:03.139Z,100.00
2022-10-02T10:08:29.010Z,100.00
2022-10-02T10:12:49.736Z,99.39
2022-10-02T10:17:15.169Z,99.51
2022-10-02T10:21:19.225Z,99.39
2022-10-02T10:25:29.985Z,98.70
2022-10-02T10:29:34.548Z,98.49
2022-10-02T10:33:54.724Z,98.27
2022-10-02T10:38:21.264Z,98.28
2022-10-02T10:42:25.299Z,97.92
2022-10-02T10:46:32.756Z,98.08
2022-10-02T10:50:53.097Z,98.06
2022-10-02T10:55:00.996Z,96.27
2022-10-02T10:59:06.743Z,95.35
2022-10-02T11:03:22.288Z,94.92
2022-10-02T11:07:34.622Z,94.31
2022-10-02T11:11:39.275Z,95.13
2022-10-02T11:15:59.903Z,94.90
2022-10-02T11:20:01.240Z,94.42
2022-10-02T11:24:17.177Z,93.59
2022-10-02T11:28:26.550Z,93.64
2022-10-02T11:32:46.845Z,93.66
2022-10-02T11:37:07.774Z,94.04
2022-10-02T11:41:09.132Z,94.58
2022-10-02T11:45:25.870Z,93.54
2022-10-02T11:49:44.134Z,93.39
2022-10-02T11:53:51.440Z,94.01
2022-10-02T11:58:00.419Z,94.91
2022-10-02T12:02:07.988Z,95.22
2022-10-02T12:06:26.077Z,94.92
2022-10-02T12:10:36.405Z,93.52
2022-10-02T12:14:43.759Z,94.21
2022-10-02T12:18:54.352Z,94.64
2022-10-02T12:23:33.332Z,95.41
2022-10-02T12:27:35.566Z,95.78
2022-10-02T12:32:12.398Z,96.20
2022-10-02T12:36:38.670Z,96.33
2022-10-02T12:40:45.428Z,96.76
2022-10-02T12:44:53.411Z,96.86
2022-10-02T12:48:54.623Z,96.58
2022-10-02T12:52:58.872Z,96.98
2022-10-02T12:57:36.636Z,97.09
2022-10-02T13:01:49.241Z,96.36
2022-10-02T13:06:10.717Z,96.81
2022-10-02T13:10:22.417Z,97.71
2022-10-02T13:14:42.117Z,97.77
2022-10-02T13:19:02.160Z,98.22
2022-10-02T13:23:22.390Z,98.79
2022-10-02T13:27:31.631Z,99.51
2022-10-02T13:31:39.712Z,99.86
2022-10-02T13:36:04.066Z,99.61
2022-10-02T13:40:21.409Z,100.00
2022-10-02T13:44:25.524Z,100.00
2022-10-02T13:48:45.505Z,100.00
2022-10-02T13:52:46.812Z,100.00
2022-10-02T13:56:56.118Z,100.00
2022-10-02T14:01:23.854Z,100.00
2022-10-02T14:05:28.008Z,99.94
2022-10-02T14:09:52.223Z,99.85
2022-10-02T14:13:53.656Z,99.49
2022-10-02T14:18:18.396Z,99.45
2022-10-02T14:22:46.816Z,98.67
2022-10-02T14:26:55.140Z,98.39
2022-10-02T14:31:15.229Z,98.54
2022-10-02T14:35:35.422Z,98.93
2022-10-02T14:39:41.542Z,98.26
2022-10-02T14:43:43.344Z,98.34
2022-10-02T14:48:04.980Z,98.84
2022-10-02T14:52:19.134Z,99.19
2022-10-02T14:56:35.825Z,99.90
2022-10-02T15:00:55.757Z,99.95
2022-10-02T15:05:10.161Z,100.00
2022-10-02T15:09:14.607Z,100.00
2022-10-02T15:13:35.333Z,100.00
2022-10-02T15:17:55.481Z,100.00
2022-10-02T15:22:03.504Z,100.00
2022-10-02T15:26:14.144Z,100.00
2022-10-02T15:30:22.793Z,100.00
2022-10-02T15:34:24.055Z,100.00
2022-10-02T15:38:37.172Z,100.00
2022-10-02T15:42:41.853Z,100.00
2022-10-02T15:46:57.108Z,100.00
2022-10-02T15:50:58.380Z,100.00
2022-10-02T15:55:17.276Z,100.00
2022-10-02T15:59:37.212Z,100.00
2022-10-02T16:03:53.375Z,100.00
2022-10-02T16:08:07.045Z,100.00
2022-10-02T16:12:26.642Z,100.00
2022-10-02T16:16:38.926Z,100.00
2022-10-02T16:20:56.200Z,100.00
2022-10-02T16:25:10.347Z,100.00
2022-10-02T16:29:11.581Z,100.00
2022-10-02T16:33:20.948Z,100.00
2022-10-02T16:37:33.232Z,100.00
2022-10-02T16:41:39.055Z,100.00
2022-10-02T16:45:56.425Z,100.00
2022-10-02T16:50:09.188Z,100.00
2022-10-02T16:54:16.932Z,100.00
2022-10-02T16:58:37.240Z,100.00
2022-10-02T17:02:43.377Z,100.00
2022-10-02T17:07:07.854Z,100.00
2022-10-02T17:11:15.240Z,100.00
2022-10-02T17:15:28.572Z,100.00
2022-10-02T17:19:32.632Z,100.00
2022-10-02T17:23:39.313Z,100.00
2022-10-02T17:27:47.428Z,100.00
2022-10-02T17:32:08.544Z,100.00
2022-10-02T17:36:12.974Z,100.00
2022-10-02T17:40:28.417Z,100.00
2022-10-02T17:44:45.116Z,100.00
2022-10-02T17:48:51.268Z,100.00
2022-10-02T17:53:42.280Z,100.00
2022-10-02T17:57:50.314Z,100.00
2022-10-02T18:01:59.441Z,100.00
2022-10-02T18:06:03.793Z,100.00
2022-10-02T18:10:14.276Z,100.00
2022-10-02T18:14:32.878Z,100.00
2022-10-02T18:18:34.496Z,100.00
2022-10-02T18:23:05.365Z,100.00
2022-10-02T18:27:26.498Z,100.00
2022-10-02T18:31:51.073Z,100.00
2022-10-02T18:35:53.173Z,100.00
2022-10-02T18:40:07.133Z,100.00
2022-10-02T18:44:35.603Z,100.00
2022-10-02T18:48:53.729Z,100.00
2022-10-02T18:53:01.168Z,100.00
2022-10-02T18:57:15.319Z,100.00
2022-10-02T19:01:19.433Z,100.00
2022-10-02T19:05:30.458Z,100.00
2022-10-02T19:09:31.919Z,100.00
2022-10-02T19:13:38.749Z,100.00
2022-10-02T19:17:46.301Z,100.00
2022-10-02T19:21:48.440Z,100.00
2022-10-02T19:25:57.327Z,100.00
2022-10-02T19:30:00.129Z,100.00
2022-10-02T19:34:04.005Z,100.00
2022-10-02T19:38:12.518Z,100.00
2022-10-02T19:42:21.018Z,100.00
2022-10-02T19:46:35.964Z,100.00
2022-10-02T19:50:41.912Z,100.00
2022-10-02T19:54:49.725Z,100.00
2022-10-02T19:58:53.472Z,100.00
2022-10-02T20:03:03.385Z,100.00
2022-10-02T20:07:04.670Z,100.00
2022-10-02T20:11:29.340Z,100.00
2022-10-02T20:15:52.924Z,100.00
2022-10-02T20:19:57.304Z,100.00
2022-10-02T20:24:00.037Z,100.00
2022-10-02T20:28:15.161Z,100.00
2022-10-02T20:32:19.469Z,100.00
2022-10-02T20:36:33.033Z,100.00
2022-10-02T20:40:36.555Z,100.00
2022-10-02T20:44:38.181Z,100.00
2022-10-02T20:49:03.581Z,100.00
2022-10-02T20:53:26.364Z,100.00
2022-10-02T20:58:00.766Z,100.00
2022-10-02T21:02:08.964Z,100.00
2022-10-02T21:06:13.382Z,100.00
2022-10-02T21:10:39.578Z,100.00
2022-10-02T21:14:42.336Z,100.00
2022-10-02T21:18:43.827Z,100.00
2022-10-02T21:22:55.948Z,100.00
2022-10-02T21:26:59.942Z,100.00
2022-10-02T21:31:01.439Z,100.00
2022-10-02T21:35:07.784Z,100.00
2022-10-02T21:39:27.872Z,100.00
2022-10-02T21:43:32.257Z,100.00
2022-10-02T21:47:43.645Z,100.00
2022-10-02T21:51:57.242Z,100.00
2022-10-02T21:56:12.395Z,100.00
2022-10-02T22:00:21.903Z,100.00
2022-10-02T22:04:46.303Z,100.00
2022-10-02T22:09:10.432Z,100.00
2022-10-02T22:13:11.900Z,100.00
2022-10-02T22:17:13.121Z,100.00
2022-10-02T22:21:23.547Z,100.00
2022-10-02T22:25:43.741Z,100.00
2022-10-02T22:29:59.377Z,100.00
2022-10-02T22:34:03.878Z,100.00
2022-10-02T22:38:14.976Z,100.00
2022-10-02T22:42:22.393Z,100.00
2022-10-02T22:46:42.474Z,100.00
2022-10-02T22:50:44.652Z,100.00
2022-10-02T22:54:58.228Z,100.00
2022-10-02T22:59:06.569Z,100.00
2022-10-02T23:03:19.388Z,100.00
2022-10-02T23:07:36.402Z,100.00
2022-10-02T23:11:42.127Z,100.00
2022-10-02T23:16:10.157Z,100.00
2022-10-02T23:20:19.016Z,100.00
2022-10-02T23:24:26.410Z,100.00
2022-10-02T23:28:47.889Z,100.00
2022-10-02T23:37:26.184Z,100.00
2022-10-02T23:41:48.438Z,100.00
2022-10-02T23:45:54.780Z,100.00
2022-10-02T23:50:04.526Z,100.00
2022-10-02T23:54:31.472Z,100.00
2022-10-02T23:58:51.821Z,100.00
